Time;durP1;ratioP1;P1;durP2;ratioP2;P2;SDS_P1;SDS_P2;PMS_P1;PMS_P2;Temp;Humidity;BMP_temperature;BMP_pressure;BME280_temperature;BME280_humidity;BME280_pressure;Samples;Min_cycle;Max_cycle;Signal;HPM_P1;HPM_P2
2022/11/21 00:00:25;;;;;;;49.45;26.05;;;5.70;99.90;;;;;;4960269;28;20034;-60
2022/11/21 00:02:51;;;;;;;51.03;27.27;;;5.30;99.90;;;;;;4960779;28;20043;-60
2022/11/21 00:05:17;;;;;;;54.10;29.08;;;5.40;99.90;;;;;;4959454;28;20376;-60
2022/11/21 00:07:44;;;;;;;54.03;29.63;;;5.40;99.90;;;;;;4963752;28;20061;-60
2022/11/21 00:10:13;;;;;;;54.78;29.55;;;5.50;99.90;;;;;;4963969;28;20513;-61
2022/11/21 00:12:39;;;;;;;56.75;32.25;;;5.70;99.90;;;;;;4973391;28;20117;-61
2022/11/21 00:15:05;;;;;;;64.13;33.88;;;5.60;99.90;;;;;;4961750;28;20054;-60
2022/11/21 00:17:31;;;;;;;60.88;32.95;;;5.60;99.90;;;;;;4959929;28;20054;-61
2022/11/21 00:19:56;;;;;;;56.10;33.42;;;5.30;99.90;;;;;;4960627;28;20042;-61
2022/11/21 00:22:22;;;;;;;56.90;32.65;;;4.90;99.90;;;;;;4959229;28;20059;-61
2022/11/21 00:24:47;;;;;;;58.67;33.42;;;4.70;99.90;;;;;;4959216;28;20054;-61
2022/11/21 00:27:13;;;;;;;61.97;34.60;;;4.80;99.90;;;;;;4961749;28;20039;-61
2022/11/21 00:29:38;;;;;;;56.55;31.77;;;4.90;99.90;;;;;;4955532;28;20097;-61
2022/11/21 00:32:04;;;;;;;58.25;31.30;;;5.00;99.90;;;;;;4960740;28;20073;-61
2022/11/21 00:34:29;;;;;;;61.20;32.88;;;4.80;99.90;;;;;;4969092;28;20379;-60
2022/11/21 00:36:55;;;;;;;59.63;33.28;;;4.90;99.90;;;;;;4964801;28;20038;-60
2022/11/21 00:39:21;;;;;;;58.75;32.25;;;5.00;99.90;;;;;;4958126;28;20092;-60
2022/11/21 00:41:46;;;;;;;61.45;32.33;;;4.90;99.90;;;;;;4954355;28;20035;-60
2022/11/21 00:44:12;;;;;;;61.72;31.88;;;5.00;99.90;;;;;;4962475;28;20480;-60
2022/11/21 00:46:37;;;;;;;56.80;30.83;;;5.20;99.90;;;;;;4963538;28;20101;-60
2022/11/21 00:49:03;;;;;;;58.40;31.77;;;4.90;99.90;;;;;;4964329;28;20050;-60
2022/11/21 00:51:28;;;;;;;63.05;33.80;;;4.80;99.90;;;;;;4958993;28;20142;-60
2022/11/21 00:53:54;;;;;;;66.55;33.15;;;4.90;99.90;;;;;;4963030;28;20035;-60
2022/11/21 00:56:19;;;;;;;60.15;31.25;;;4.90;99.90;;;;;;4965023;28;20089;-60
2022/11/21 00:58:45;;;;;;;57.72;31.60;;;4.70;99.90;;;;;;4965937;28;20037;-60
2022/11/21 01:01:13;;;;;;;60.80;32.90;;;4.90;99.90;;;;;;4962603;28;20042;-60
2022/11/21 01:03:40;;;;;;;58.60;32.78;;;5.20;99.90;;;;;;4964050;28;20038;-60
2022/11/21 01:06:11;;;;;;;58.08;31.35;;;5.30;99.90;;;;;;4969344;28;20117;-61
2022/11/21 01:08:39;;;;;;;61.28;32.45;;;5.00;99.90;;;;;;4968142;28;20038;-61
2022/11/21 01:11:06;;;;;;;59.65;33.15;;;5.00;99.90;;;;;;4958343;28;20505;-61
2022/11/21 01:13:33;;;;;;;58.17;32.28;;;5.20;99.90;;;;;;4964718;28;20438;-60
2022/11/21 01:16:07;;;;;;;59.50;33.40;;;5.10;99.90;;;;;;4964926;28;20055;-61
2022/11/21 01:18:34;;;;;;;55.10;31.73;;;5.40;99.90;;;;;;4958848;28;20046;-60
2022/11/21 01:21:21;;;;;;;57.58;32.58;;;5.40;99.90;;;;;;4968378;28;20050;-60
2022/11/21 01:23:47;;;;;;;59.13;31.85;;;5.00;99.90;;;;;;4961288;28;20035;-61
2022/11/21 01:26:15;;;;;;;62.28;33.53;;;5.00;99.90;;;;;;4967852;28;20502;-60
2022/11/21 01:28:41;;;;;;;58.95;32.85;;;5.30;99.90;;;;;;4966380;28;20066;-61
2022/11/21 01:31:15;;;;;;;56.97;32.45;;;5.20;99.90;;;;;;4968088;28;20599;-60
2022/11/21 01:33:41;;;;;;;54.08;31.30;;;5.10;99.90;;;;;;4965535;28;20113;-61
2022/11/21 01:36:19;;;;;;;54.60;32.50;;;4.90;99.90;;;;;;4963981;28;20061;-60
2022/11/21 01:38:48;;;;;;;54.33;31.52;;;5.20;99.90;;;;;;4958429;28;20049;-61
2022/11/21 01:41:17;;;;;;;57.38;32.63;;;5.10;99.90;;;;;;4958408;28;20043;-61
2022/11/21 01:43:42;;;;;;;56.45;31.77;;;5.00;99.90;;;;;;4965070;28;20122;-61
2022/11/21 01:46:08;;;;;;;57.28;33.70;;;4.90;99.90;;;;;;4960516;28;20638;-61
2022/11/21 01:48:42;;;;;;;55.08;32.22;;;4.90;99.90;;;;;;4968226;28;20479;-61
2022/11/21 01:51:16;;;;;;;58.08;33.55;;;5.00;99.90;;;;;;4957585;28;20042;-61
2022/11/21 01:53:49;;;;;;;60.13;33.20;;;5.10;99.90;;;;;;4968017;28;20506;-61
2022/11/21 01:56:15;;;;;;;60.30;33.97;;;5.00;99.90;;;;;;4966933;28;20031;-61
2022/11/21 01:58:41;;;;;;;61.97;36.17;;;5.20;99.90;;;;;;4959701;28;20223;-60
2022/11/21 02:01:07;;;;;;;60.42;34.17;;;5.20;99.90;;;;;;4959255;28;21703;-61
2022/11/21 02:03:36;;;;;;;63.00;34.55;;;5.10;99.90;;;;;;4961489;28;20042;-61
2022/11/21 02:06:03;;;;;;;56.85;32.80;;;5.20;99.90;;;;;;4967168;28;20042;-61
2022/11/21 02:08:29;;;;;;;57.63;33.72;;;5.00;99.90;;;;;;4968490;28;20031;-61
2022/11/21 02:11:25;;;;;;;57.22;32.97;;;5.00;99.90;;;;;;4960551;28;20406;-61
2022/11/21 02:13:51;;;;;;;56.97;33.78;;;5.40;99.90;;;;;;4966689;28;20039;-61
2022/11/21 02:16:17;;;;;;;61.50;35.80;;;5.00;99.90;;;;;;4963654;28;20462;-61
2022/11/21 02:18:42;;;;;;;63.50;34.33;;;5.20;99.90;;;;;;4966383;28;20050;-61
2022/11/21 02:21:22;;;;;;;63.83;35.33;;;5.10;99.90;;;;;;4981156;28;20185;-61
2022/11/21 02:24:24;;;;;;;62.50;32.88;;;5.20;99.90;;;;;;4967585;28;20705;-61
2022/11/21 02:26:49;;;;;;;62.78;33.50;;;4.80;99.90;;;;;;4951624;28;20565;-61
2022/11/21 02:29:15;;;;;;;70.35;36.92;;;4.90;99.90;;;;;;4966176;28;20089;-61
2022/11/21 02:31:41;;;;;;;68.28;36.83;;;5.10;99.90;;;;;;4961553;28;20062;-61
2022/11/21 02:34:06;;;;;;;68.07;37.60;;;5.30;99.90;;;;;;4964421;28;20521;-61
2022/11/21 02:36:39;;;;;;;68.65;36.60;;;5.20;99.90;;;;;;4954523;28;20038;-61
2022/11/21 02:39:08;;;;;;;63.40;35.58;;;5.40;99.90;;;;;;4957091;28;20504;-61
2022/11/21 02:41:36;;;;;;;59.65;33.80;;;5.20;99.90;;;;;;4964155;28;20066;-61
2022/11/21 02:44:14;;;;;;;60.53;33.05;;;4.90;99.90;;;;;;4965319;28;20133;-61
2022/11/21 02:46:47;;;;;;;61.47;34.33;;;4.80;99.90;;;;;;4961584;28;20042;-61
2022/11/21 02:49:13;;;;;;;;;;;5.00;99.90;;;;;;4960685;28;20085;-61
2022/11/21 02:51:39;;;;;;;58.83;32.25;;;5.00;99.90;;;;;;4966112;28;19949;-61
2022/11/21 02:54:04;;;;;;;62.60;34.50;;;5.10;99.90;;;;;;4962364;28;20030;-61
2022/11/21 02:56:30;;;;;;;63.60;34.35;;;5.30;99.90;;;;;;4963965;28;20038;-61
2022/11/21 02:58:55;;;;;;;66.80;35.92;;;5.30;99.90;;;;;;4965424;28;20034;-61
2022/11/21 03:01:21;;;;;;;62.20;35.33;;;5.10;99.90;;;;;;4954772;28;20126;-61
2022/11/21 03:03:46;;;;;;;65.55;35.47;;;5.20;99.90;;;;;;4963687;28;20447;-61
2022/11/21 03:06:12;;;;;;;64.80;34.67;;;5.30;99.90;;;;;;4962664;28;20402;-61
2022/11/21 03:08:37;;;;;;;62.70;35.03;;;5.20;99.90;;;;;;4965140;28;20674;-61
2022/11/21 03:11:03;;;;;;;63.15;34.03;;;5.30;99.90;;;;;;4960025;28;20038;-61
2022/11/21 03:13:28;;;;;;;62.50;34.08;;;5.20;99.90;;;;;;4963018;28;20043;-61
2022/11/21 03:15:54;;;;;;;65.90;33.50;;;5.10;99.90;;;;;;4964229;28;20042;-61
2022/11/21 03:18:19;;;;;;;71.05;36.03;;;4.90;99.90;;;;;;4965724;28;20054;-61
2022/11/21 03:20:45;;;;;;;68.50;34.78;;;4.60;99.90;;;;;;4964382;28;20120;-61
2022/11/21 03:23:10;;;;;;;73.85;36.67;;;4.80;99.90;;;;;;4958232;28;20107;-61
2022/11/21 03:25:36;;;;;;;72.22;35.03;;;4.80;99.90;;;;;;4970155;28;20081;-61
2022/11/21 03:28:02;;;;;;;72.03;36.10;;;4.70;99.90;;;;;;4964973;28;20034;-61
2022/11/21 03:30:27;;;;;;;72.78;36.63;;;4.80;99.90;;;;;;4963958;28;20030;-61
2022/11/21 03:32:57;;;;;;;71.15;36.92;;;4.60;99.90;;;;;;4963869;28;20113;-61
2022/11/21 03:35:23;;;;;;;75.18;36.30;;;4.80;99.90;;;;;;4966726;28;20430;-61
2022/11/21 03:37:48;;;;;;;80.10;36.58;;;4.90;99.90;;;;;;4967147;28;20031;-61
2022/11/21 03:40:14;;;;;;;76.60;34.83;;;5.00;99.90;;;;;;4963926;28;20138;-61
2022/11/21 03:42:39;;;;;;;74.95;35.13;;;4.80;99.90;;;;;;4965532;28;20089;-61
2022/11/21 03:45:06;;;;;;;71.50;33.72;;;4.40;99.90;;;;;;4962968;28;20162;-61
2022/11/21 03:47:31;;;;;;;72.30;34.80;;;4.30;99.90;;;;;;4966433;28;20042;-61
2022/11/21 03:49:57;;;;;;;78.88;35.05;;;4.20;99.90;;;;;;4964898;28;20046;-61
2022/11/21 03:52:22;;;;;;;89.90;37.92;;;4.40;99.90;;;;;;4956889;28;20050;-61
2022/11/21 03:54:48;;;;;;;84.93;36.78;;;4.60;99.90;;;;;;4966380;28;20031;-61
2022/11/21 03:57:13;;;;;;;86.22;36.10;;;4.60;99.90;;;;;;4964180;28;20086;-61
2022/11/21 03:59:39;;;;;;;74.35;33.20;;;4.50;99.90;;;;;;4964610;28;20059;-61
2022/11/21 04:02:05;;;;;;;86.32;35.45;;;4.50;99.90;;;;;;4963205;28;20037;-61
2022/11/21 04:04:30;;;;;;;81.68;34.90;;;4.80;99.90;;;;;;4961014;28;20068;-61
2022/11/21 04:06:56;;;;;;;79.85;34.50;;;4.70;99.90;;;;;;4966379;28;20489;-61
2022/11/21 04:09:21;;;;;;;83.25;33.95;;;4.50;99.90;;;;;;4959795;28;20101;-61
2022/11/21 04:11:47;;;;;;;79.65;34.15;;;4.60;99.90;;;;;;4962680;28;20126;-61
2022/11/21 04:14:12;;;;;;;77.18;32.05;;;4.80;99.90;;;;;;4958170;28;20066;-61
2022/11/21 04:16:38;;;;;;;77.90;32.33;;;4.90;99.90;;;;;;4963395;28;20038;-61
2022/11/21 04:19:03;;;;;;;83.13;33.83;;;4.70;99.90;;;;;;4966070;28;20034;-60
2022/11/21 04:21:29;;;;;;;74.50;33.22;;;5.00;99.90;;;;;;4961725;28;20415;-61
2022/11/21 04:23:54;;;;;;;84.47;34.97;;;4.90;99.90;;;;;;4959597;28;20081;-61
2022/11/21 04:26:20;;;;;;;77.55;33.78;;;5.10;99.90;;;;;;4955658;28;20031;-61
2022/11/21 04:28:45;;;;;;;78.20;32.42;;;4.90;99.90;;;;;;4964378;28;20034;-61
2022/11/21 04:31:11;;;;;;;77.35;34.47;;;4.70;99.90;;;;;;4957174;28;20394;-61
2022/11/21 04:33:37;;;;;;;78.05;32.92;;;4.90;99.90;;;;;;4966461;28;20041;-61
2022/11/21 04:36:03;;;;;;;89.80;36.17;;;4.90;99.90;;;;;;4967919;28;20506;-61
2022/11/21 04:38:29;;;;;;;89.82;35.72;;;5.10;99.90;;;;;;4969139;28;20094;-61
2022/11/21 04:40:55;;;;;;;85.43;35.10;;;5.20;99.90;;;;;;4968672;28;20077;-62
2022/11/21 04:43:20;;;;;;;81.32;34.97;;;5.20;99.90;;;;;;4968663;28;20035;-61
2022/11/21 04:45:46;;;;;;;85.38;36.30;;;5.30;99.90;;;;;;4961844;28;20045;-61
2022/11/21 04:48:11;;;;;;;77.88;33.90;;;5.40;99.90;;;;;;4962790;28;20031;-61
2022/11/21 04:50:37;;;;;;;84.82;35.50;;;5.50;99.90;;;;;;4962486;28;20122;-61
2022/11/21 04:53:02;;;;;;;86.50;35.28;;;5.40;99.90;;;;;;4967237;28;20050;-61
2022/11/21 04:55:30;;;;;;;77.18;33.63;;;5.40;99.90;;;;;;4967808;28;20545;-61
2022/11/21 04:57:56;;;;;;;91.07;36.15;;;5.30;99.90;;;;;;4976962;28;20042;-61
2022/11/21 05:00:22;;;;;;;82.38;34.70;;;5.30;99.90;;;;;;4963296;28;20043;-61
2022/11/21 05:02:47;;;;;;;86.10;34.20;;;5.20;99.90;;;;;;4964371;28;20093;-61
2022/11/21 05:05:13;;;;;;;90.30;37.30;;;5.60;99.90;;;;;;4955546;28;20063;-61
2022/11/21 05:07:39;;;;;;;90.72;36.90;;;5.60;99.90;;;;;;4961633;28;20047;-61
2022/11/21 05:10:05;;;;;;;89.75;38.03;;;5.60;99.90;;;;;;4965781;28;20035;-61
2022/11/21 05:15:15;;;;;;;90.57;36.08;;;5.60;99.90;;;;;;4966305;28;20394;-61
2022/11/21 05:17:40;;;;;;;87.15;35.88;;;5.50;99.90;;;;;;4961781;28;20047;-61
2022/11/21 05:20:07;;;;;;;83.90;36.20;;;5.50;99.90;;;;;;4960293;28;20041;-61
2022/11/21 05:22:32;;;;;;;82.55;36.13;;;5.40;99.90;;;;;;4966171;28;20062;-61
2022/11/21 05:24:58;;;;;;;88.25;35.58;;;5.30;99.90;;;;;;4966638;28;20081;-61
2022/11/21 05:27:23;;;;;;;91.72;37.10;;;5.50;99.90;;;;;;4968514;28;20673;-61
2022/11/21 05:29:49;;;;;;;83.43;36.53;;;5.40;99.90;;;;;;4957760;28;20031;-61
2022/11/21 05:32:15;;;;;;;84.05;36.83;;;5.40;99.90;;;;;;4957937;28;20050;-61
2022/11/21 05:34:40;;;;;;;79.05;34.78;;;5.20;99.90;;;;;;4953449;28;20460;-61
2022/11/21 05:37:06;;;;;;;79.90;34.80;;;5.40;99.90;;;;;;4959523;28;20092;-61
2022/11/21 05:39:31;;;;;;;73.78;33.70;;;5.10;99.90;;;;;;4958439;28;20039;-61
2022/11/21 05:41:57;;;;;;;76.22;34.75;;;5.30;99.90;;;;;;4962438;28;20409;-61
2022/11/21 05:44:22;;;;;;;84.57;35.92;;;5.40;99.90;;;;;;4969380;28;20446;-61
2022/11/21 05:46:48;;;;;;;84.43;35.40;;;5.50;99.90;;;;;;4957910;28;20046;-61
2022/11/21 05:49:13;;;;;;;78.47;34.92;;;5.50;99.90;;;;;;4957178;28;20031;-61
2022/11/21 05:51:39;;;;;;;81.35;34.42;;;5.50;99.90;;;;;;4961861;28;20045;-61
2022/11/21 05:54:05;;;;;;;82.15;34.15;;;5.40;99.90;;;;;;4961132;28;20187;-61
2022/11/21 05:56:30;;;;;;;84.00;34.40;;;5.50;99.90;;;;;;4957835;28;20076;-61
2022/11/21 05:58:57;;;;;;;86.95;34.80;;;5.60;99.90;;;;;;4962999;28;20027;-61
2022/11/21 06:04:08;;;;;;;83.40;35.70;;;5.60;99.90;;;;;;4964389;28;20125;-61
2022/11/21 06:06:34;;;;;;;81.88;36.03;;;5.70;99.90;;;;;;4967312;28;20050;-61
2022/11/21 06:09:00;;;;;;;86.43;35.72;;;5.70;99.90;;;;;;4956085;28;20155;-61
2022/11/21 06:11:26;;;;;;;83.70;35.55;;;5.70;99.90;;;;;;4961664;28;20147;-61
2022/11/21 06:13:52;;;;;;;81.60;34.53;;;5.70;99.90;;;;;;4959168;28;20045;-61
2022/11/21 06:16:19;;;;;;;82.28;34.78;;;5.70;99.90;;;;;;4957941;28;20561;-61
2022/11/21 06:18:47;;;;;;;84.90;36.28;;;5.70;99.90;;;;;;4964368;28;20042;-62
2022/11/21 06:21:17;;;;;;;86.63;36.22;;;5.80;99.90;;;;;;4960053;28;20048;-61
2022/11/21 06:23:44;;;;;;;81.72;34.30;;;5.80;99.90;;;;;;4956414;28;20485;-61
2022/11/21 06:26:15;;;;;;;77.68;33.17;;;5.50;99.90;;;;;;4958415;28;20038;-61
2022/11/21 06:28:42;;;;;;;85.68;34.22;;;5.60;99.90;;;;;;4962112;28;20105;-61
2022/11/21 06:31:10;;;;;;;72.30;32.30;;;5.70;99.90;;;;;;4961836;28;20134;-61
2022/11/21 06:33:37;;;;;;;81.32;34.55;;;5.70;99.90;;;;;;4958696;28;20070;-61
2022/11/21 06:36:08;;;;;;;80.60;34.30;;;5.70;99.90;;;;;;4963766;28;20031;-61
2022/11/21 06:38:33;;;;;;;80.22;34.28;;;5.80;99.90;;;;;;4955772;28;20085;-61
2022/11/21 06:41:10;;;;;;;85.90;35.28;;;5.80;99.90;;;;;;4957203;28;20035;-62
2022/11/21 06:43:35;;;;;;;82.57;34.85;;;5.90;99.90;;;;;;4964621;28;20055;-62
2022/11/21 06:46:04;;;;;;;88.15;35.65;;;5.80;99.90;;;;;;4955043;28;20664;-62
2022/11/21 06:48:34;;;;;;;84.00;35.30;;;6.00;99.90;;;;;;4956034;28;20560;-62
2022/11/21 06:51:20;;;;;;;77.32;34.22;;;6.00;99.90;;;;;;4958638;28;20039;-62
2022/11/21 06:53:54;;;;;;;75.45;33.45;;;6.00;99.90;;;;;;4964923;28;20438;-62
2022/11/21 06:56:20;;;;;;;72.43;31.67;;;6.00;99.90;;;;;;4957950;28;20487;-62
2022/11/21 06:58:45;;;;;;;80.70;33.92;;;5.80;99.90;;;;;;4959537;28;20087;-62
2022/11/21 07:01:12;;;;;;;80.78;32.65;;;5.80;99.90;;;;;;4960803;28;20031;-62
2022/11/21 07:03:38;;;;;;;76.68;31.70;;;5.90;99.90;;;;;;4964380;28;20039;-61
2022/11/21 07:06:05;;;;;;;83.82;35.30;;;5.80;99.90;;;;;;4955575;28;20050;-61
2022/11/21 07:08:34;;;;;;;87.20;34.75;;;5.90;99.90;;;;;;4962261;28;20283;-60
2022/11/21 07:11:01;;;;;;;85.75;33.22;;;5.90;99.90;;;;;;4959266;28;20031;-62
2022/11/21 07:13:27;;;;;;;88.45;34.38;;;5.90;99.90;;;;;;4960864;28;20141;-64
2022/11/21 07:15:54;;;;;;;94.28;36.38;;;6.00;99.90;;;;;;4961563;28;20708;-62
2022/11/21 07:18:21;;;;;;;90.32;33.28;;;6.10;99.90;;;;;;4965276;28;20104;-61
2022/11/21 07:20:47;;;;;;;95.75;36.72;;;6.10;99.90;;;;;;4963544;28;20074;-60
2022/11/21 07:23:13;;;;;;;104.40;37.33;;;6.10;99.90;;;;;;4965233;28;20035;-61
2022/11/21 07:25:39;;;;;;;95.80;36.28;;;6.10;99.90;;;;;;4963547;28;20125;-61
2022/11/21 07:28:06;;;;;;;111.07;37.08;;;6.10;99.90;;;;;;4965049;28;20129;-61
2022/11/21 07:30:33;;;;;;;105.80;37.15;;;6.30;99.90;;;;;;4960017;28;20042;-61
2022/11/21 07:33:04;;;;;;;99.80;37.78;;;6.30;99.90;;;;;;4954114;28;20399;-61
2022/11/21 07:35:31;;;;;;;104.55;37.53;;;6.30;99.90;;;;;;4957150;28;20517;-61
2022/11/21 07:37:56;;;;;;;97.75;36.13;;;6.30;99.90;;;;;;4955802;28;20035;-61
2022/11/21 07:40:22;;;;;;;91.97;35.22;;;6.20;99.90;;;;;;4955599;28;20130;-61
2022/11/21 07:42:48;;;;;;;103.10;36.00;;;6.00;99.90;;;;;;4959487;28;20042;-61
2022/11/21 07:45:14;;;;;;;97.07;34.83;;;5.90;99.90;;;;;;4956479;28;20042;-60
2022/11/21 07:47:40;;;;;;;100.68;36.85;;;5.90;99.90;;;;;;4958798;28;20043;-60
2022/11/21 07:50:08;;;;;;;95.32;36.42;;;6.00;99.90;;;;;;4957047;28;20035;-61
2022/11/21 07:52:33;;;;;;;100.05;36.63;;;6.00;99.90;;;;;;4961241;28;20039;-61
2022/11/21 07:55:01;;;;;;;95.40;35.72;;;6.00;99.90;;;;;;4961726;28;20363;-61
2022/11/21 07:57:27;;;;;;;87.45;35.40;;;5.90;99.90;;;;;;4960895;28;20565;-60
2022/11/21 07:59:53;;;;;;;110.50;38.22;;;5.80;99.90;;;;;;4960495;28;20130;-59
2022/11/21 08:02:21;;;;;;;107.68;36.25;;;5.90;99.90;;;;;;4960266;28;20232;-61
2022/11/21 08:04:47;;;;;;;90.30;37.28;;;6.10;99.90;;;;;;4956915;28;20430;-61
2022/11/21 08:07:14;;;;;;;91.13;37.17;;;6.20;99.90;;;;;;4957200;28;20050;-61
2022/11/21 08:09:39;;;;;;;98.43;38.65;;;6.40;99.90;;;;;;4964541;28;20046;-61
2022/11/21 08:12:05;;;;;;;94.63;36.22;;;6.30;99.90;;;;;;4958659;28;20093;-61
2022/11/21 08:14:32;;;;;;;95.43;36.50;;;6.30;99.90;;;;;;4963052;28;20039;-61
2022/11/21 08:16:58;;;;;;;104.63;39.28;;;6.50;99.90;;;;;;4966272;28;20375;-61
2022/11/21 08:19:23;;;;;;;94.53;36.25;;;6.40;99.90;;;;;;4959336;28;20042;-61
2022/11/21 08:21:49;;;;;;;93.45;36.20;;;6.20;99.90;;;;;;4963229;28;20876;-60
2022/11/21 08:24:16;;;;;;;98.30;35.47;;;6.10;99.90;;;;;;4968633;28;20035;-61
2022/11/21 08:26:43;;;;;;;92.13;36.33;;;6.20;99.90;;;;;;4962824;28;20470;-61
2022/11/21 08:29:10;;;;;;;83.22;34.60;;;6.20;99.90;;;;;;4966787;28;20023;-61
2022/11/21 08:31:36;;;;;;;87.63;32.90;;;6.20;99.90;;;;;;4966691;28;20053;-61
2022/11/21 08:34:02;;;;;;;75.63;32.92;;;6.30;99.90;;;;;;4967566;28;20486;-61
2022/11/21 08:36:27;;;;;;;78.40;32.92;;;6.20;99.90;;;;;;4970188;28;20042;-61
2022/11/21 08:38:53;;;;;;;77.22;32.75;;;6.20;99.90;;;;;;4967515;28;20584;-61
2022/11/21 08:44:04;;;;;;;65.50;28.83;;;6.50;99.90;;;;;;4962946;28;20045;-61
2022/11/21 08:46:32;;;;;;;63.22;28.77;;;6.50;99.90;;;;;;4967945;28;20704;-61
2022/11/21 08:48:58;;;;;;;68.13;27.55;;;6.60;99.90;;;;;;4959359;28;20098;-61
2022/11/21 08:51:23;;;;;;;65.25;28.52;;;6.80;99.90;;;;;;4966792;28;20039;-61
2022/11/21 08:53:49;;;;;;;52.90;25.73;;;7.00;99.90;;;;;;4964486;28;20583;-62
2022/11/21 08:56:15;;;;;;;55.10;26.98;;;7.10;99.90;;;;;;4960268;28;20560;-62
2022/11/21 08:58:41;;;;;;;60.33;26.23;;;7.20;99.90;;;;;;4960892;28;20647;-62
2022/11/21 09:01:06;;;;;;;52.40;25.92;;;7.30;99.90;;;;;;4960843;28;20093;-62
2022/11/21 09:03:32;;;;;;;57.20;27.25;;;7.30;99.90;;;;;;4956592;28;20038;-62
2022/11/21 09:05:59;;;;;;;53.20;26.95;;;7.40;99.90;;;;;;4964827;28;20035;-62
2022/11/21 09:08:25;;;;;;;48.47;25.92;;;7.30;99.90;;;;;;4964375;28;20042;-61
2022/11/21 09:10:51;;;;;;;40.03;23.95;;;7.10;99.90;;;;;;4966544;28;20045;-61
2022/11/21 09:13:16;;;;;;;39.03;23.55;;;7.00;99.90;;;;;;4961393;28;20051;-61
2022/11/21 09:18:26;;;;;;;37.65;21.23;;;7.00;99.90;;;;;;4962594;28;20223;-61
2022/11/21 09:20:51;;;;;;;38.03;22.15;;;7.10;99.90;;;;;;4965188;28;20106;-61
2022/11/21 09:23:17;;;;;;;31.55;21.10;;;7.10;99.90;;;;;;4962515;28;20047;-61
2022/11/21 09:25:43;;;;;;;33.47;20.45;;;7.20;99.90;;;;;;4981084;28;20120;-61
2022/11/21 09:28:10;;;;;;;31.05;20.85;;;7.20;99.90;;;;;;4964655;28;20035;-61
2022/11/21 09:30:36;;;;;;;32.78;21.00;;;7.30;99.90;;;;;;4967389;28;20473;-61
2022/11/21 09:33:07;;;;;;;31.05;19.95;;;7.30;99.90;;;;;;4964603;28;20039;-61
2022/11/21 09:35:33;;;;;;;33.15;20.15;;;7.30;99.90;;;;;;4967210;28;20031;-61
2022/11/21 09:37:59;;;;;;;34.03;20.60;;;7.40;99.90;;;;;;4963821;28;20122;-62
2022/11/21 09:40:25;;;;;;;29.90;19.30;;;7.40;99.90;;;;;;4974233;28;20039;-62
2022/11/21 09:43:26;;;;;;;29.35;19.10;;;7.50;99.90;;;;;;4964319;28;20037;-61
2022/11/21 09:46:04;;;;;;;32.42;19.60;;;7.60;99.90;;;;;;4961971;28;20038;-61
2022/11/21 09:48:38;;;;;;;28.30;20.15;;;7.50;99.90;;;;;;4955786;28;20576;-61
2022/11/21 09:51:10;;;;;;;30.42;20.17;;;7.70;99.90;;;;;;4961202;28;20545;-62
2022/11/21 09:53:50;;;;;;;31.33;21.25;;;7.90;99.90;;;;;;4982947;28;20062;-62
2022/11/21 09:56:20;;;;;;;32.28;20.08;;;7.90;99.90;;;;;;4965221;28;20489;-62
2022/11/21 09:58:55;;;;;;;33.55;20.75;;;7.80;99.90;;;;;;4965554;28;20059;-61
2022/11/21 10:01:21;;;;;;;61.53;39.22;;;7.80;99.90;;;;;;4965230;28;20053;-61
2022/11/21 10:03:51;;;;;;;30.40;21.52;;;7.80;99.90;;;;;;4966458;28;20034;-61
2022/11/21 10:06:24;;;;;;;31.52;19.60;;;7.80;99.90;;;;;;4956605;28;20030;-61
2022/11/21 10:09:14;;;;;;;31.40;19.85;;;7.90;99.90;;;;;;4960551;28;20031;-61
2022/11/21 10:15:06;;;;;;;28.73;18.33;;;7.80;99.90;;;;;;4965497;28;20053;-61
2022/11/21 10:17:59;;;;;;;28.55;18.88;;;7.70;99.90;;;;;;4965778;28;20043;-61
2022/11/21 10:20:46;;;;;;;29.48;19.33;;;7.80;99.90;;;;;;4962835;28;20035;-61
2022/11/21 10:23:35;;;;;;;30.95;18.45;;;7.90;99.90;;;;;;4964081;28;20031;-61
2022/11/21 10:26:24;;;;;;;28.73;18.05;;;7.80;99.90;;;;;;4952036;28;20049;-61
2022/11/21 10:29:00;;;;;;;32.10;18.27;;;7.80;99.90;;;;;;4964897;28;20038;-61
2022/11/21 10:31:30;;;;;;;29.17;17.05;;;7.90;99.90;;;;;;4963653;28;20058;-61
2022/11/21 10:33:57;;;;;;;28.27;17.52;;;8.00;99.90;;;;;;4955475;28;20118;-61
2022/11/21 10:36:44;;;;;;;31.45;15.30;;;8.20;99.90;;;;;;4962153;28;20031;-61
2022/11/21 10:39:18;;;;;;;25.70;15.85;;;8.40;99.90;;;;;;4954341;28;20464;-62
2022/11/21 10:42:05;;;;;;;24.55;15.57;;;8.50;99.90;;;;;;4956857;28;20042;-61
2022/11/21 10:47:27;;;;;;;23.55;14.25;;;8.50;99.90;;;;;;4960219;28;20042;-61
2022/11/21 10:50:15;;;;;;;24.83;13.65;;;8.60;99.90;;;;;;4959823;28;20114;-61
2022/11/21 10:52:52;;;;;;;24.10;15.05;;;8.50;99.90;;;;;;4950934;28;20184;-61
2022/11/21 10:55:18;;;;;;;27.88;14.07;;;8.50;99.90;;;;;;4959974;28;20565;-61
2022/11/21 10:57:49;;;;;;;25.73;13.50;;;8.70;99.90;;;;;;4958987;28;20097;-61
2022/11/21 11:00:19;;;;;;;23.55;12.05;;;8.60;99.90;;;;;;4955905;28;20036;-61
2022/11/21 11:03:03;;;;;;;20.20;11.25;;;8.40;99.90;;;;;;4947087;28;20043;-61
2022/11/21 11:05:34;;;;;;;19.33;12.02;;;8.40;99.90;;;;;;4958462;28;20046;-61
2022/11/21 11:08:13;;;;;;;18.90;11.13;;;8.70;99.90;;;;;;4965321;28;20475;-61
2022/11/21 11:10:44;;;;;;;18.98;10.70;;;8.60;99.90;;;;;;4959886;28;20053;-61
2022/11/21 11:16:09;;;;;;;21.83;10.30;;;8.70;99.90;;;;;;4950979;28;20525;-61
2022/11/21 11:18:44;;;;;;;16.92;9.60;;;8.70;99.90;;;;;;4958716;28;20486;-61
2022/11/21 11:21:25;;;;;;;21.35;9.80;;;8.50;99.90;;;;;;4961246;28;20037;-61
2022/11/21 11:23:52;;;;;;;17.77;9.40;;;8.40;99.90;;;;;;4958221;28;20039;-61
2022/11/21 11:26:29;;;;;;;18.23;9.75;;;8.30;99.90;;;;;;4962877;28;20118;-61
2022/11/21 11:29:08;;;;;;;18.20;10.68;;;8.40;99.90;;;;;;4960966;28;20055;-62
2022/11/21 11:31:44;;;;;;;18.88;9.75;;;8.50;99.90;;;;;;4947501;28;20498;-61
2022/11/21 11:34:13;;;;;;;21.65;9.73;;;8.60;99.90;;;;;;4961236;28;20038;-62
2022/11/21 11:37:02;;;;;;;20.13;8.90;;;8.70;99.90;;;;;;4957838;28;20039;-61
2022/11/21 11:40:01;;;;;;;15.25;7.30;;;8.50;99.90;;;;;;4959942;28;20038;-62
2022/11/21 11:48:42;;;;;;;17.40;7.55;;;8.60;99.90;;;;;;4952037;28;20421;-61
2022/11/21 11:51:33;;;;;;;16.05;7.43;;;8.60;99.90;;;;;;4952061;28;20046;-62
2022/11/21 11:54:07;;;;;;;25.50;7.80;;;8.60;99.90;;;;;;4957853;28;20042;-62
2022/11/21 11:56:37;;;;;;;14.63;7.30;;;8.60;99.90;;;;;;4956509;28;20506;-62
2022/11/21 11:59:28;;;;;;;14.30;7.32;;;8.80;99.90;;;;;;4960758;28;20035;-62
2022/11/21 12:02:01;;;;;;;16.60;6.05;;;8.80;99.90;;;;;;4962383;28;20114;-61
2022/11/21 12:04:54;;;;;;;12.25;5.65;;;8.70;99.90;;;;;;4958570;28;20358;-61
2022/11/21 12:07:33;;;;;;;14.23;5.60;;;8.80;99.90;;;;;;4953041;28;20728;-61
2022/11/21 12:13:42;;;;;;;9.18;5.72;;;8.90;99.90;;;;;;4922537;29;20062;-62
2022/11/21 12:16:12;;;;;;;11.50;5.15;;;8.80;99.90;;;;;;4922639;29;20087;-62
2022/11/21 12:19:01;;;;;;;11.70;5.70;;;8.90;99.90;;;;;;4943441;28;20145;-62
2022/11/21 12:21:27;;;;;;;10.13;5.25;;;8.90;99.90;;;;;;4950357;28;20054;-62
2022/11/21 12:23:55;;;;;;;11.65;4.78;;;8.80;99.90;;;;;;4973430;28;20169;-62
2022/11/21 12:26:48;;;;;;;13.82;5.00;;;8.80;99.90;;;;;;4973070;28;20039;-62
2022/11/21 12:29:43;;;;;;;12.85;4.35;;;9.00;99.90;;;;;;4952166;28;20043;-62
2022/11/21 12:32:43;;;;;;;11.73;4.18;;;8.90;99.90;;;;;;4956968;28;20050;-62
2022/11/21 12:35:35;;;;;;;10.95;4.45;;;9.40;99.90;;;;;;4963593;28;20047;-62
2022/11/21 12:38:23;;;;;;;10.25;3.35;;;9.00;99.90;;;;;;4958326;28;20043;-61
2022/11/21 12:42:47;;;;;;;8.57;2.90;;;8.90;99.90;;;;;;4963090;28;20058;-62
2022/11/21 12:43:56;;;;;;;13.48;3.70;;;8.90;99.90;;;;;;4960237;28;20093;-62
2022/11/21 12:46:28;;;;;;;13.50;3.33;;;9.00;99.90;;;;;;4963644;28;20035;-63
2022/11/21 12:55:18;;;;;;;8.75;2.95;;;9.00;99.90;;;;;;4967181;28;20049;-62
2022/11/21 12:58:00;;;;;;;16.02;5.95;;;8.90;99.90;;;;;;4963522;28;20031;-62
2022/11/21 13:00:51;;;;;;;17.90;9.10;;;9.00;99.90;;;;;;4962796;28;20064;-61
2022/11/21 13:03:43;;;;;;;10.63;3.20;;;8.90;99.90;;;;;;4957516;28;20035;-62
2022/11/21 13:06:15;;;;;;;9.60;2.70;;;9.00;99.90;;;;;;4960012;28;20039;-62
2022/11/21 13:08:43;;;;;;;6.10;2.17;;;9.10;99.90;;;;;;4967296;28;20039;-61
2022/11/21 13:14:14;;;;;;;7.72;2.38;;;9.00;99.90;;;;;;4965077;28;20041;-61
2022/11/21 13:16:45;;;;;;;13.40;2.40;;;9.10;99.90;;;;;;4965829;28;20441;-61
2022/11/21 13:19:36;;;;;;;12.05;2.55;;;9.10;99.90;;;;;;4957813;28;20034;-61
2022/11/21 13:22:02;;;;;;;10.02;3.38;;;9.20;99.90;;;;;;4962575;28;20062;-61
2022/11/21 13:24:46;;;;;;;9.70;2.83;;;9.10;99.90;;;;;;4962190;28;20057;-61
2022/11/21 13:27:40;;;;;;;7.85;2.95;;;9.00;99.90;;;;;;4963740;28;20394;-61
2022/11/21 13:30:06;;;;;;;8.48;2.40;;;9.00;99.90;;;;;;4957084;28;20031;-61